Time;durP1;ratioP1;P1;durP2;ratioP2;P2;SDS_P1;SDS_P2;PMS_P1;PMS_P2;Temp;Humidity;BMP_temperature;BMP_pressure;BME280_temperature;BME280_humidity;BME280_pressure;Samples;Min_cycle;Max_cycle;Signal;HPM_P1;HPM_P2
2021/04/16 00:00:44;;;;;;;4.45;2.25;;;5.30;68.50;;;;;;5056386;28;20413;-73
2021/04/16 00:03:11;;;;;;;3.03;2.25;;;5.10;68.90;;;;;;5056386;28;20025;-72
2021/04/16 00:05:38;;;;;;;3.17;2.45;;;5.00;68.90;;;;;;5055915;28;20096;-72
2021/04/16 00:08:08;;;;;;;2.63;2.20;;;4.90;68.40;;;;;;5056256;28;20128;-73
2021/04/16 00:10:42;;;;;;;2.40;2.00;;;4.90;68.50;;;;;;5058592;28;20108;-72
2021/04/16 00:13:10;;;;;;;3.60;2.13;;;4.90;69.10;;;;;;5059704;28;20107;-72
2021/04/16 00:15:39;;;;;;;3.33;2.13;;;4.80;67.30;;;;;;5059805;28;20286;-72
2021/04/16 00:18:06;;;;;;;3.67;2.65;;;4.80;68.10;;;;;;5059834;28;20029;-73
2021/04/16 00:20:32;;;;;;;4.07;2.50;;;4.80;67.30;;;;;;5059514;28;20449;-73
2021/04/16 00:22:59;;;;;;;2.67;2.28;;;4.90;67.30;;;;;;5059666;28;20040;-73
2021/04/16 00:25:27;;;;;;;2.90;2.20;;;5.00;67.20;;;;;;5059189;28;20460;-73
2021/04/16 00:27:53;;;;;;;3.25;2.58;;;5.10;67.30;;;;;;5059252;28;20118;-73
2021/04/16 00:30:26;;;;;;;3.17;2.55;;;5.10;67.20;;;;;;5059348;28;20044;-73
2021/04/16 00:32:52;;;;;;;3.45;2.50;;;5.10;67.70;;;;;;5059283;28;20306;-73
2021/04/16 00:35:18;;;;;;;3.25;2.50;;;5.20;67.20;;;;;;5059148;28;20028;-72
2021/04/16 00:37:43;;;;;;;4.07;2.50;;;5.20;67.30;;;;;;5059519;28;20029;-72
2021/04/16 00:40:13;;;;;;;3.42;2.20;;;5.20;67.10;;;;;;5059470;28;20095;-72
2021/04/16 00:42:39;;;;;;;2.10;1.90;;;5.20;65.50;;;;;;5059433;28;20037;-73
2021/04/16 00:45:07;;;;;;;4.50;2.40;;;5.20;66.50;;;;;;5059114;28;20094;-73
2021/04/16 00:47:33;;;;;;;3.22;2.00;;;5.20;66.50;;;;;;5058780;28;20068;-73
2021/04/16 00:50:09;;;;;;;2.53;2.00;;;5.10;66.40;;;;;;5059270;28;20100;-72
2021/04/16 00:52:35;;;;;;;2.40;2.00;;;5.10;66.00;;;;;;5059287;28;20111;-72
2021/04/16 00:55:02;;;;;;;3.65;2.20;;;5.10;66.20;;;;;;5059270;28;20108;-72
2021/04/16 00:57:28;;;;;;;3.15;2.30;;;5.10;65.60;;;;;;5059094;28;20099;-72
2021/04/16 00:59:56;;;;;;;3.45;2.35;;;5.00;66.60;;;;;;5059071;28;20021;-72
2021/04/16 01:02:22;;;;;;;3.45;2.03;;;5.00;65.50;;;;;;5059005;28;20029;-72
2021/04/16 01:04:48;;;;;;;3.33;1.90;;;5.00;65.30;;;;;;5058891;28;20027;-73
2021/04/16 01:07:14;;;;;;;3.55;2.45;;;5.00;65.40;;;;;;5058934;28;20376;-72
2021/04/16 01:09:40;;;;;;;4.15;2.00;;;5.00;65.30;;;;;;5058624;28;20017;-72
2021/04/16 01:12:08;;;;;;;4.40;2.15;;;5.10;65.40;;;;;;5058858;28;20104;-72
2021/04/16 01:14:36;;;;;;;6.10;2.42;;;5.10;66.10;;;;;;5058684;28;20339;-73
2021/04/16 01:17:02;;;;;;;2.30;1.65;;;5.10;65.90;;;;;;5058751;28;20021;-72
2021/04/16 01:19:42;;;;;;;5.78;2.33;;;5.00;65.20;;;;;;5058729;28;20032;-73
2021/04/16 01:22:42;;;;;;;4.57;2.50;;;5.00;65.50;;;;;;5057732;28;20028;-73
2021/04/16 01:25:09;;;;;;;4.50;2.10;;;5.00;65.80;;;;;;5058252;28;20047;-73
2021/04/16 01:27:35;;;;;;;3.30;2.60;;;5.10;66.10;;;;;;5058170;28;20033;-72
2021/04/16 01:30:08;;;;;;;5.20;2.58;;;5.10;65.80;;;;;;5058215;28;20032;-72
2021/04/16 01:32:35;;;;;;;3.95;2.35;;;5.30;65.70;;;;;;5058206;28;20025;-72
2021/04/16 01:35:06;;;;;;;3.17;2.17;;;5.20;66.00;;;;;;5058316;28;20029;-73
2021/04/16 01:37:32;;;;;;;3.88;2.20;;;5.20;66.00;;;;;;5057979;28;20029;-72
2021/04/16 01:39:57;;;;;;;2.10;1.80;;;5.20;64.30;;;;;;5058266;28;20052;-72
2021/04/16 01:42:24;;;;;;;3.75;2.50;;;5.20;64.70;;;;;;5058301;28;20020;-72
2021/04/16 01:44:49;;;;;;;4.75;2.38;;;5.20;65.00;;;;;;5057891;28;20025;-72
2021/04/16 01:47:16;;;;;;;2.63;2.20;;;5.10;65.80;;;;;;5058090;28;20025;-72
2021/04/16 01:49:49;;;;;;;2.92;2.35;;;5.10;65.90;;;;;;5057870;28;20408;-73
2021/04/16 01:52:20;;;;;;;2.90;2.05;;;5.00;65.40;;;;;;5057789;28;20025;-72
2021/04/16 01:54:50;;;;;;;3.22;2.00;;;5.00;66.00;;;;;;5058089;28;20032;-72
2021/04/16 01:57:27;;;;;;;3.53;2.25;;;5.00;67.30;;;;;;5057982;28;20033;-73
2021/04/16 01:59:54;;;;;;;3.25;2.40;;;4.90;67.60;;;;;;5057614;28;20021;-73
2021/04/16 02:02:33;;;;;;;2.75;1.85;;;4.80;68.40;;;;;;5057882;28;20096;-73
2021/04/16 02:04:59;;;;;;;3.28;2.05;;;4.70;68.90;;;;;;5057728;28;20025;-72
2021/04/16 02:07:26;;;;;;;4.85;2.00;;;4.50;69.40;;;;;;5057344;28;20025;-72
2021/04/16 02:09:52;;;;;;;4.95;2.45;;;4.40;69.50;;;;;;5057765;28;20084;-73
2021/04/16 02:12:22;;;;;;;5.57;2.47;;;4.40;68.70;;;;;;5057385;28;20457;-72
2021/04/16 02:14:50;;;;;;;4.43;2.20;;;4.40;70.50;;;;;;5057598;28;20021;-72
2021/04/16 02:17:22;;;;;;;3.90;2.00;;;4.40;67.80;;;;;;5057628;28;20021;-72
2021/04/16 02:19:47;;;;;;;4.47;2.83;;;4.50;66.50;;;;;;5057299;28;20436;-72
2021/04/16 02:22:20;;;;;;;3.97;2.38;;;4.70;67.70;;;;;;5057523;28;20029;-72
2021/04/16 02:24:46;;;;;;;2.80;2.53;;;4.70;68.80;;;;;;5057246;28;20029;-73
2021/04/16 02:27:19;;;;;;;2.83;2.00;;;4.70;69.50;;;;;;5057154;28;20078;-72
2021/04/16 02:29:45;;;;;;;3.85;2.40;;;4.60;69.20;;;;;;5057380;28;20435;-72
2021/04/16 02:32:13;;;;;;;2.20;2.00;;;4.50;69.20;;;;;;5056855;28;20060;-72
2021/04/16 02:34:38;;;;;;;2.97;2.20;;;4.40;70.30;;;;;;5056933;28;20033;-72
2021/04/16 02:37:08;;;;;;;2.78;2.08;;;4.30;69.90;;;;;;5057260;28;20059;-72
2021/04/16 02:39:34;;;;;;;3.42;2.00;;;4.30;70.00;;;;;;5057283;28;20321;-72
2021/04/16 02:42:00;;;;;;;4.78;1.98;;;4.20;69.20;;;;;;5056891;28;20029;-72
2021/04/16 02:44:26;;;;;;;3.33;2.05;;;4.10;71.00;;;;;;5056794;28;20040;-72
2021/04/16 02:46:52;;;;;;;4.78;2.30;;;4.00;70.50;;;;;;5057062;28;20039;-72
2021/04/16 02:49:19;;;;;;;3.20;2.13;;;3.90;70.60;;;;;;5057038;28;20032;-72
2021/04/16 02:51:45;;;;;;;1.98;1.67;;;3.80;71.60;;;;;;5057061;28;20310;-72
2021/04/16 02:54:11;;;;;;;2.85;2.13;;;3.70;72.40;;;;;;5057031;28;20146;-72
2021/04/16 02:56:36;;;;;;;4.00;2.15;;;3.60;72.80;;;;;;5056676;28;20040;-72
2021/04/16 02:59:02;;;;;;;2.25;1.90;;;3.60;73.40;;;;;;5056954;28;20039;-72
2021/04/16 03:01:28;;;;;;;3.05;2.47;;;3.50;74.40;;;;;;5056914;28;20025;-72
2021/04/16 03:03:55;;;;;;;4.63;2.83;;;3.40;74.30;;;;;;5056832;28;20294;-72
2021/04/16 03:06:22;;;;;;;3.40;2.35;;;3.30;74.20;;;;;;5056905;28;20032;-72
2021/04/16 03:08:55;;;;;;;3.40;2.53;;;3.30;74.30;;;;;;5056435;28;20029;-72
2021/04/16 03:11:21;;;;;;;2.67;2.30;;;3.20;74.30;;;;;;5056601;28;20028;-72
2021/04/16 03:13:47;;;;;;;2.67;2.25;;;3.20;74.30;;;;;;5056749;28;20021;-72
2021/04/16 03:16:14;;;;;;;3.63;2.40;;;3.20;75.40;;;;;;5056833;28;20344;-72
2021/04/16 03:18:39;;;;;;;4.80;2.20;;;3.20;76.20;;;;;;5056745;28;20036;-72
2021/04/16 03:21:06;;;;;;;4.15;2.20;;;3.10;77.30;;;;;;5056813;28;20025;-72
2021/04/16 03:23:31;;;;;;;3.30;2.72;;;3.00;77.80;;;;;;5056650;28;20086;-72
2021/04/16 03:25:57;;;;;;;6.75;2.65;;;3.00;77.90;;;;;;5056362;28;20053;-72
2021/04/16 03:28:23;;;;;;;3.08;2.78;;;2.90;78.20;;;;;;5056620;28;20485;-72
2021/04/16 03:30:50;;;;;;;3.80;2.83;;;2.90;78.30;;;;;;5056414;28;20449;-72
2021/04/16 03:33:16;;;;;;;5.47;2.95;;;2.90;78.60;;;;;;5056580;28;20025;-72
2021/04/16 03:35:41;;;;;;;3.45;2.90;;;2.90;78.80;;;;;;5056252;28;20386;-72
2021/04/16 03:38:07;;;;;;;3.47;2.80;;;2.90;78.40;;;;;;5056548;28;20021;-72
2021/04/16 03:40:33;;;;;;;6.07;2.53;;;2.90;78.00;;;;;;5056571;28;20032;-72
2021/04/16 03:42:59;;;;;;;2.53;2.05;;;2.90;77.70;;;;;;5056260;28;20079;-72
2021/04/16 03:45:26;;;;;;;4.78;2.53;;;2.90;77.00;;;;;;5059037;28;20032;-72
2021/04/16 03:47:52;;;;;;;3.25;2.22;;;2.90;76.50;;;;;;5060407;28;20064;-72
2021/04/16 03:50:22;;;;;;;3.75;2.35;;;3.00;76.80;;;;;;5060147;28;20070;-72
2021/04/16 03:52:48;;;;;;;3.95;2.38;;;3.00;74.70;;;;;;5060383;28;20114;-72
2021/04/16 03:55:16;;;;;;;4.43;3.15;;;3.00;75.60;;;;;;5059830;28;20055;-72
2021/04/16 03:57:42;;;;;;;4.70;3.47;;;3.20;74.10;;;;;;5060246;28;20036;-72
2021/04/16 04:00:10;;;;;;;3.75;3.35;;;3.40;73.20;;;;;;5060312;28;20025;-72
2021/04/16 04:02:36;;;;;;;4.35;3.35;;;3.60;72.60;;;;;;5059883;28;20104;-72
2021/04/16 04:05:02;;;;;;;5.68;3.00;;;3.70;72.10;;;;;;5060054;28;20235;-72
2021/04/16 04:07:27;;;;;;;6.50;3.10;;;3.80;71.90;;;;;;5059685;28;20029;-72
2021/04/16 04:09:53;;;;;;;3.25;2.95;;;3.90;71.30;;;;;;5060069;28;20028;-72
2021/04/16 04:12:18;;;;;;;3.15;2.50;;;3.90;71.50;;;;;;5060006;28;20021;-72
2021/04/16 04:14:44;;;;;;;4.30;2.78;;;3.90;71.40;;;;;;5059894;28;20305;-72
2021/04/16 04:17:23;;;;;;;3.75;2.40;;;3.90;71.80;;;;;;5059606;28;20029;-72
2021/04/16 04:19:49;;;;;;;3.13;2.60;;;3.80;71.40;;;;;;5059940;28;20028;-72
2021/04/16 04:22:15;;;;;;;6.10;2.63;;;3.70;71.40;;;;;;5059829;28;20037;-72
2021/04/16 04:24:40;;;;;;;4.03;2.30;;;3.70;73.10;;;;;;5059571;28;20028;-73
2021/04/16 04:27:07;;;;;;;3.38;2.80;;;3.60;74.00;;;;;;5059780;28;20035;-72
2021/04/16 04:29:32;;;;;;;3.85;2.88;;;3.50;73.60;;;;;;5059601;28;20025;-72
2021/04/16 04:31:58;;;;;;;4.13;3.33;;;3.50;73.20;;;;;;5059319;28;20471;-72
2021/04/16 04:34:27;;;;;;;4.13;2.65;;;3.40;74.60;;;;;;5059172;28;20029;-72
2021/04/16 04:36:55;;;;;;;4.95;3.03;;;3.40;74.50;;;;;;5059222;28;20028;-72
2021/04/16 04:39:23;;;;;;;4.70;2.80;;;3.50;74.50;;;;;;5059261;28;20036;-72
2021/04/16 04:41:48;;;;;;;4.60;3.90;;;3.40;73.40;;;;;;5059425;28;20029;-72
2021/04/16 04:44:15;;;;;;;10.10;6.78;;;3.50;72.40;;;;;;5059315;28;20159;-72
2021/04/16 04:46:41;;;;;;;3.53;2.80;;;3.60;71.20;;;;;;5059397;28;20029;-72
2021/04/16 04:49:08;;;;;;;4.05;2.45;;;3.70;72.20;;;;;;5058995;28;20341;-72
2021/04/16 04:51:35;;;;;;;3.47;2.60;;;3.80;71.40;;;;;;5059276;28;20021;-72
2021/04/16 04:54:02;;;;;;;2.63;2.40;;;3.90;70.60;;;;;;5059043;28;20044;-72
2021/04/16 04:56:27;;;;;;;3.60;2.50;;;4.00;71.70;;;;;;5059078;28;20075;-72
2021/04/16 04:58:53;;;;;;;5.57;2.88;;;4.10;70.90;;;;;;5059162;28;20032;-72
2021/04/16 05:01:19;;;;;;;9.38;2.50;;;4.10;73.10;;;;;;5058785;28;20475;-73
2021/04/16 05:03:44;;;;;;;2.75;2.40;;;4.00;73.30;;;;;;5058979;28;20033;-72
2021/04/16 05:06:10;;;;;;;3.35;2.75;;;4.00;71.20;;;;;;5058718;28;20443;-72
2021/04/16 05:08:36;;;;;;;3.08;2.65;;;4.10;71.60;;;;;;5058883;28;20025;-73
2021/04/16 05:11:02;;;;;;;3.95;2.90;;;4.20;70.90;;;;;;5058686;28;20025;-72
2021/04/16 05:13:28;;;;;;;6.28;2.90;;;4.40;71.10;;;;;;5058825;28;20025;-73
2021/04/16 05:15:54;;;;;;;3.35;2.55;;;4.60;69.40;;;;;;5058820;28;20032;-72
2021/04/16 05:18:20;;;;;;;4.03;2.60;;;4.70;69.60;;;;;;5058774;28;20072;-73
2021/04/16 05:20:46;;;;;;;3.83;2.88;;;4.80;69.70;;;;;;5058449;28;20063;-72
2021/04/16 05:23:12;;;;;;;3.72;2.42;;;4.90;69.30;;;;;;5058631;28;20044;-73
2021/04/16 05:25:38;;;;;;;3.13;2.30;;;5.00;68.40;;;;;;5058083;28;20049;-73
2021/04/16 05:28:04;;;;;;;3.65;2.70;;;5.10;68.50;;;;;;5058508;28;20033;-73
2021/04/16 05:30:29;;;;;;;3.63;2.45;;;5.10;68.40;;;;;;5058276;28;20435;-73
2021/04/16 05:32:55;;;;;;;4.78;3.10;;;5.20;68.70;;;;;;5058212;28;20025;-72
2021/04/16 05:35:21;;;;;;;4.07;2.30;;;5.30;68.50;;;;;;5058402;28;20070;-72
2021/04/16 05:37:47;;;;;;;3.05;2.25;;;5.40;68.20;;;;;;5058380;28;20435;-73
2021/04/16 05:40:14;;;;;;;3.33;2.15;;;5.50;68.20;;;;;;5058069;28;20067;-73
2021/04/16 05:42:39;;;;;;;5.63;2.45;;;5.60;67.80;;;;;;5058292;28;20040;-73
2021/04/16 05:45:06;;;;;;;4.20;2.40;;;5.60;67.30;;;;;;5057914;28;20020;-73
2021/04/16 05:47:32;;;;;;;3.35;2.25;;;5.70;66.70;;;;;;5058122;28;20116;-73
2021/04/16 05:49:58;;;;;;;3.75;2.50;;;5.80;66.10;;;;;;5058179;28;20107;-73
2021/04/16 05:52:24;;;;;;;2.70;2.20;;;5.80;66.00;;;;;;5058097;28;20032;-73
2021/04/16 05:54:49;;;;;;;7.00;2.30;;;5.90;66.20;;;;;;5058037;28;20025;-73
2021/04/16 05:57:15;;;;;;;3.83;2.10;;;6.00;67.00;;;;;;5057725;28;20040;-73
2021/04/16 05:59:42;;;;;;;4.43;2.28;;;6.10;65.90;;;;;;5057718;28;20044;-73
2021/04/16 06:02:33;;;;;;;5.93;2.70;;;6.10;67.00;;;;;;5057610;28;20105;-72
2021/04/16 06:05:00;;;;;;;3.05;2.35;;;6.20;65.60;;;;;;5057848;28;20036;-73
2021/04/16 06:07:26;;;;;;;3.95;2.75;;;6.30;65.00;;;;;;5056950;28;20032;-73
2021/04/16 06:09:53;;;;;;;6.40;2.13;;;6.30;63.90;;;;;;5056449;28;20150;-72
2021/04/16 06:12:20;;;;;;;4.45;2.45;;;6.40;63.00;;;;;;5057454;28;20025;-73
2021/04/16 06:14:46;;;;;;;3.17;2.22;;;6.40;64.40;;;;;;5057640;28;20068;-72
2021/04/16 06:17:14;;;;;;;4.75;2.30;;;6.40;63.30;;;;;;5057298;28;20433;-73
2021/04/16 06:19:40;;;;;;;3.78;2.15;;;6.50;65.00;;;;;;5057661;28;20417;-73
2021/04/16 06:22:08;;;;;;;5.18;2.38;;;6.40;63.50;;;;;;5057583;28;20060;-73
2021/04/16 06:24:34;;;;;;;4.72;2.25;;;6.40;63.20;;;;;;5056906;28;20033;-73
2021/04/16 06:27:00;;;;;;;7.25;2.63;;;6.40;64.10;;;;;;5057537;28;20036;-73
2021/04/16 06:29:26;;;;;;;3.60;2.25;;;6.60;65.10;;;;;;5057400;28;20029;-73
2021/04/16 06:31:52;;;;;;;4.47;2.40;;;6.70;64.00;;;;;;5057400;28;20291;-73
2021/04/16 06:34:18;;;;;;;3.20;2.42;;;6.80;62.40;;;;;;5057256;28;20052;-73
2021/04/16 06:36:44;;;;;;;3.55;2.10;;;7.00;62.40;;;;;;5057320;28;20070;-73
2021/04/16 06:39:10;;;;;;;2.78;2.38;;;7.20;61.20;;;;;;5057332;28;20033;-73
2021/04/16 06:41:38;;;;;;;3.33;2.42;;;7.40;60.70;;;;;;5057229;28;20028;-73
2021/04/16 06:44:24;;;;;;;3.92;2.55;;;7.60;59.70;;;;;;5056818;28;20025;-72
2021/04/16 06:47:01;;;;;;;4.03;2.60;;;7.90;60.00;;;;;;5057198;28;20029;-72
2021/04/16 06:49:30;;;;;;;3.15;2.20;;;8.10;59.70;;;;;;5057456;28;20325;-72
2021/04/16 06:51:58;;;;;;;2.63;2.42;;;8.10;59.90;;;;;;5056773;28;20153;-73
2021/04/16 06:54:28;;;;;;;3.03;2.15;;;8.10;61.10;;;;;;5057044;28;20029;-73
2021/04/16 06:56:58;;;;;;;2.88;2.30;;;8.00;57.10;;;;;;5057014;28;20329;-72
2021/04/16 06:59:30;;;;;;;3.53;2.50;;;7.90;56.80;;;;;;5056735;28;20047;-73
2021/04/16 07:02:03;;;;;;;3.10;2.10;;;8.00;60.40;;;;;;5056938;28;20029;-72
2021/04/16 07:04:48;;;;;;;3.85;2.50;;;8.00;58.70;;;;;;5056577;28;20047;-73
2021/04/16 07:07:36;;;;;;;3.50;2.47;;;8.10;58.60;;;;;;5056909;28;20036;-73
2021/04/16 07:10:19;;;;;;;3.00;1.88;;;8.30;58.00;;;;;;5056853;28;20044;-72
2021/04/16 07:12:46;;;;;;;4.03;2.03;;;8.60;57.60;;;;;;5056835;28;20025;-73
2021/04/16 07:15:22;;;;;;;2.22;2.00;;;9.00;55.50;;;;;;5056758;28;20432;-72
2021/04/16 07:17:48;;;;;;;2.70;1.90;;;9.90;54.50;;;;;;5056806;28;20032;-73
2021/04/16 07:20:19;;;;;;;2.63;1.80;;;10.60;52.00;;;;;;5059170;28;20052;-72
2021/04/16 07:22:54;;;;;;;3.83;1.90;;;11.50;50.10;;;;;;5060657;28;20100;-73
2021/04/16 07:25:35;;;;;;;2.50;1.88;;;12.20;48.00;;;;;;5060301;28;20055;-72
2021/04/16 07:28:29;;;;;;;2.88;1.80;;;12.80;48.20;;;;;;5060478;28;20104;-73
2021/04/16 07:30:55;;;;;;;2.60;1.95;;;13.50;47.20;;;;;;5060020;28;20036;-73
2021/04/16 07:33:41;;;;;;;3.08;2.05;;;13.80;44.80;;;;;;5060384;28;20021;-73
2021/04/16 07:36:21;;;;;;;;;;;14.30;45.40;;;;;;5061202;28;20052;-73
2021/04/16 07:39:19;;;;;;;3.83;1.80;;;14.80;44.20;;;;;;5060643;28;20263;-73
2021/04/16 07:42:14;;;;;;;2.97;2.05;;;14.80;43.80;;;;;;5060589;28;20023;-73
2021/04/16 07:44:59;;;;;;;4.30;2.30;;;15.00;45.40;;;;;;5060504;28;20021;-72
2021/04/16 07:47:29;;;;;;;3.42;2.20;;;15.10;44.60;;;;;;5060561;28;20143;-73
2021/04/16 07:49:58;;;;;;;3.03;2.17;;;15.20;43.30;;;;;;5060480;28;20033;-73
2021/04/16 07:52:47;;;;;;;7.32;2.30;;;15.40;44.00;;;;;;5060364;28;20021;-73
2021/04/16 07:55:30;;;;;;;2.55;1.80;;;15.70;42.70;;;;;;5059908;28;20025;-73
2021/04/16 07:58:21;;;;;;;2.72;1.73;;;15.80;44.70;;;;;;5060011;28;20035;-73
2021/04/16 08:00:50;;;;;;;2.88;1.95;;;15.90;45.20;;;;;;5059962;28;20028;-73
2021/04/16 08:03:26;;;;;;;4.13;2.15;;;15.90;43.20;;;;;;5059845;28;20035;-73
2021/04/16 08:05:55;;;;;;;2.85;2.45;;;15.50;42.60;;;;;;5060182;28;20087;-73
2021/04/16 08:08:29;;;;;;;3.83;2.25;;;14.90;44.30;;;;;;5059996;28;20036;-73
2021/04/16 08:11:04;;;;;;;3.50;2.38;;;15.10;44.10;;;;;;5060121;28;20045;-72
2021/04/16 08:13:34;;;;;;;3.15;2.38;;;15.30;42.70;;;;;;5059936;28;20378;-73
2021/04/16 08:16:42;;;;;;;3.50;2.30;;;15.30;43.40;;;;;;5059727;28;20059;-73
2021/04/16 08:19:19;;;;;;;4.75;2.85;;;15.60;42.40;;;;;;5057665;28;20029;-73
2021/04/16 08:21:51;;;;;;;4.05;2.25;;;15.40;40.90;;;;;;5059370;28;20029;-73
2021/04/16 08:24:42;;;;;;;6.60;2.75;;;15.50;43.00;;;;;;5059690;28;20033;-73
2021/04/16 08:27:45;;;;;;;3.45;2.65;;;16.30;41.30;;;;;;5059792;28;20044;-73
2021/04/16 08:30:32;;;;;;;6.53;2.50;;;16.70;39.60;;;;;;5059257;28;20049;-73
2021/04/16 08:33:05;;;;;;;3.45;2.75;;;16.90;39.90;;;;;;5059415;28;20440;-73
2021/04/16 08:35:44;;;;;;;5.35;2.40;;;17.10;39.90;;;;;;5059564;28;20344;-73
2021/04/16 08:38:18;;;;;;;5.32;2.70;;;17.30;40.00;;;;;;5059547;28;20017;-73
2021/04/16 08:40:46;;;;;;;3.92;2.88;;;17.20;39.70;;;;;;5059518;28;20096;-73
2021/04/16 08:43:39;;;;;;;3.58;2.78;;;17.30;39.90;;;;;;5059449;28;20025;-73
2021/04/16 08:46:51;;;;;;;3.83;3.10;;;16.70;39.80;;;;;;5059092;28;20025;-73
2021/04/16 08:49:22;;;;;;;4.70;2.95;;;16.50;42.00;;;;;;5058864;28;20107;-73
2021/04/16 08:51:54;;;;;;;6.15;2.70;;;16.30;41.30;;;;;;5059056;28;20413;-73
2021/04/16 08:54:48;;;;;;;3.88;2.50;;;17.00;39.80;;;;;;5059203;28;20079;-73
2021/04/16 08:57:35;;;;;;;4.25;2.45;;;16.60;42.50;;;;;;5059274;28;20029;-73
2021/04/16 09:00:15;;;;;;;4.22;2.72;;;16.50;40.60;;;;;;5059182;28;20045;-73
2021/04/16 09:02:43;;;;;;;3.65;2.30;;;16.70;40.50;;;;;;5059125;28;20039;-73
2021/04/16 09:05:12;;;;;;;4.38;2.53;;;16.90;41.40;;;;;;5058935;28;20037;-73
2021/04/16 09:08:07;;;;;;;3.50;2.50;;;17.10;40.80;;;;;;5058623;28;20033;-73
2021/04/16 09:10:38;;;;;;;4.43;2.95;;;16.90;39.40;;;;;;5056892;28;20029;-73
2021/04/16 09:13:06;;;;;;;6.05;2.78;;;17.40;40.80;;;;;;5058613;28;20074;-73
2021/04/16 09:15:35;;;;;;;5.80;2.70;;;17.50;39.50;;;;;;5058768;28;20040;-73
2021/04/16 09:18:00;;;;;;;6.32;2.60;;;17.90;36.90;;;;;;5058492;28;20028;-73
2021/04/16 09:20:35;;;;;;;4.28;2.53;;;18.20;38.70;;;;;;5058737;28;20112;-73
2021/04/16 09:23:17;;;;;;;5.20;2.90;;;18.20;38.50;;;;;;5058646;28;20325;-73
2021/04/16 09:25:46;;;;;;;6.00;2.65;;;18.00;38.40;;;;;;5058165;28;20045;-73
2021/04/16 09:28:24;;;;;;;5.13;3.17;;;18.20;37.20;;;;;;5058055;28;20063;-73
2021/04/16 09:31:02;;;;;;;6.30;3.33;;;18.20;40.00;;;;;;5058594;28;20053;-73
2021/04/16 09:33:43;;;;;;;6.93;2.60;;;18.40;37.70;;;;;;5058490;28;20326;-73
2021/04/16 09:36:32;;;;;;;4.13;3.10;;;18.40;40.00;;;;;;5058486;28;20029;-73
2021/04/16 09:39:15;;;;;;;3.92;2.50;;;18.50;40.30;;;;;;5057984;28;20029;-73
2021/04/16 09:41:46;;;;;;;4.32;2.38;;;18.20;36.00;;;;;;5057439;28;20111;-73
2021/04/16 09:44:27;;;;;;;4.38;2.88;;;18.30;40.40;;;;;;5057835;28;20029;-73
2021/04/16 09:47:03;;;;;;;3.92;2.65;;;18.40;35.50;;;;;;5058175;28;20039;-73
2021/04/16 09:49:36;;;;;;;2.92;2.17;;;18.20;38.30;;;;;;5057871;28;20028;-73
2021/04/16 09:52:26;;;;;;;3.40;2.40;;;18.50;40.80;;;;;;5057915;28;20021;-73
2021/04/16 09:54:52;;;;;;;4.07;2.50;;;19.00;36.60;;;;;;5058194;28;20037;-73
2021/04/16 09:57:22;;;;;;;6.18;2.60;;;19.00;37.50;;;;;;5058015;28;20029;-73
2021/04/16 09:59:48;;;;;;;5.07;2.53;;;19.20;38.20;;;;;;5057580;28;20325;-73
2021/04/16 10:02:34;;;;;;;4.57;2.70;;;19.20;38.80;;;;;;5057948;28;20029;-73
2021/04/16 10:05:04;;;;;;;4.13;2.20;;;19.50;39.00;;;;;;5057855;28;20029;-73
2021/04/16 10:07:57;;;;;;;3.72;2.72;;;20.00;40.20;;;;;;5058293;28;20021;-71
2021/04/16 10:10:42;;;;;;;4.50;2.70;;;20.20;37.40;;;;;;5057813;28;20029;-73
2021/04/16 10:13:20;;;;;;;4.40;2.93;;;20.10;36.00;;;;;;5056405;28;20036;-73
2021/04/16 10:15:54;;;;;;;5.43;3.13;;;19.80;35.80;;;;;;5045220;28;20026;-73
2021/04/16 10:18:38;;;;;;;3.75;2.70;;;18.60;36.70;;;;;;5057265;28;20029;-73
2021/04/16 10:21:20;;;;;;;5.20;3.47;;;18.50;37.70;;;;;;5057614;28;20075;-73
2021/04/16 10:24:09;;;;;;;5.88;3.08;;;18.20;41.70;;;;;;5057360;28;20108;-73
2021/04/16 12:39:38;;;;;;;9.43;3.95;;;13.80;43.30;;;;;;5059360;28;20052;-72
2021/04/16 12:42:05;;;;;;;4.68;3.20;;;13.80;45.70;;;;;;5059565;28;20029;-72
2021/04/16 12:44:41;;;;;;;5.68;3.92;;;13.90;48.10;;;;;;5059446;28;20033;-72
2021/04/16 12:47:11;;;;;;;5.07;3.72;;;13.90;49.20;;;;;;5059478;28;20393;-72
2021/04/16 12:49:37;;;;;;;4.40;3.20;;;14.20;48.80;;;;;;5059029;28;20029;-72
2021/04/16 12:52:05;;;;;;;5.47;4.07;;;14.40;49.20;;;;;;5059041;28;20325;-72
2021/04/16 12:54:38;;;;;;;5.60;3.55;;;14.50;47.90;;;;;;5059311;28;20025;-72
2021/04/16 12:57:06;;;;;;;5.07;3.55;;;14.50;51.10;;;;;;5058977;28;20036;-72
2021/04/16 12:59:33;;;;;;;5.88;4.03;;;14.40;46.90;;;;;;5059213;28;20341;-72
2021/04/16 13:01:59;;;;;;;6.20;3.67;;;14.40;49.80;;;;;;5058872;28;20104;-72
2021/04/16 13:04:26;;;;;;;5.88;3.85;;;14.50;49.40;;;;;;5059026;28;20056;-72
2021/04/16 13:06:57;;;;;;;4.05;3.35;;;14.50;46.80;;;;;;5058751;28;20124;-72
2021/04/16 13:09:23;;;;;;;5.90;3.67;;;14.60;50.30;;;;;;5058618;28;20060;-72
2021/04/16 13:11:49;;;;;;;8.15;3.72;;;14.40;46.00;;;;;;5058678;28;20051;-72
2021/04/16 13:14:15;;;;;;;5.72;3.40;;;14.10;45.40;;;;;;5058566;28;20104;-72
2021/04/16 13:16:41;;;;;;;7.70;3.90;;;14.10;47.10;;;;;;5057872;28;20100;-72
2021/04/16 13:19:11;;;;;;;5.03;3.75;;;14.30;46.10;;;;;;5058594;28;20044;-72
2021/04/16 13:21:42;;;;;;;5.45;2.97;;;14.40;47.70;;;;;;5058818;28;20480;-72
2021/04/16 13:24:09;;;;;;;5.13;3.40;;;14.60;48.50;;;;;;5058680;28;20033;-72
2021/04/16 13:26:35;;;;;;;5.40;3.80;;;14.70;47.00;;;;;;5058217;28;20354;-72
2021/04/16 13:29:01;;;;;;;5.30;3.97;;;14.80;48.10;;;;;;5058234;28;20120;-72
2021/04/16 13:31:34;;;;;;;5.47;3.65;;;14.70;48.60;;;;;;5058554;28;20021;-72
2021/04/16 13:34:01;;;;;;;4.70;3.95;;;14.50;47.20;;;;;;5058224;28;20051;-72
2021/04/16 13:36:30;;;;;;;4.85;3.92;;;14.40;46.40;;;;;;5058200;28;20029;-72
2021/04/16 13:38:56;;;;;;;4.30;3.75;;;14.30;44.80;;;;;;5058355;28;20036;-72
2021/04/16 13:41:22;;;;;;;5.82;3.55;;;14.10;45.60;;;;;;5058405;28;20064;-72
2021/04/16 13:43:49;;;;;;;6.55;3.92;;;14.00;47.50;;;;;;5057975;28;20025;-72
2021/04/16 13:46:18;;;;;;;4.95;3.97;;;13.90;47.00;;;;;;5058291;28;20028;-72
2021/04/16 13:48:46;;;;;;;7.88;4.68;;;13.90;46.90;;;;;;5057834;28;20029;-72
2021/04/16 13:51:12;;;;;;;7.65;3.78;;;13.80;44.20;;;;;;5058237;28;20067;-72
2021/04/16 13:53:38;;;;;;;5.50;4.13;;;13.70;49.00;;;;;;5057872;28;20056;-72
2021/04/16 13:56:04;;;;;;;5.75;3.67;;;13.80;49.50;;;;;;5058109;28;20107;-72
2021/04/16 13:58:29;;;;;;;6.13;4.00;;;13.90;47.20;;;;;;5057723;28;20025;-72
2021/04/16 14:00:55;;;;;;;4.07;3.60;;;13.90;47.20;;;;;;5057741;28;20036;-72
2021/04/16 14:03:48;;;;;;;6.03;4.22;;;13.80;46.10;;;;;;5057566;28;20029;-72
2021/04/16 14:06:26;;;;;;;5.50;3.90;;;13.80;45.80;;;;;;5057933;28;20147;-72
2021/04/16 14:08:55;;;;;;;4.22;3.38;;;13.70;48.60;;;;;;5057796;28;20029;-72
2021/04/16 14:11:22;;;;;;;5.65;4.30;;;13.60;48.20;;;;;;5057529;28;20036;-72
2021/04/16 14:13:48;;;;;;;10.07;4.97;;;13.60;48.20;;;;;;5057719;28;20336;-72
2021/04/16 14:16:33;;;;;;;6.97;4.63;;;13.60;48.20;;;;;;5057419;28;20028;-72
2021/04/16 14:19:09;;;;;;;8.40;4.28;;;13.60;47.40;;;;;;5057429;28;20099;-72
2021/04/16 14:21:40;;;;;;;6.13;5.20;;;13.50;48.40;;;;;;5057426;28;20504;-72
2021/04/16 14:24:08;;;;;;;6.05;4.82;;;13.30;48.50;;;;;;5057595;28;20040;-72
2021/04/16 14:26:34;;;;;;;6.95;4.78;;;13.20;47.30;;;;;;5057102;28;20383;-72
2021/04/16 14:29:00;;;;;;;7.45;5.35;;;12.80;47.60;;;;;;5057043;28;20035;-72
2021/04/16 14:31:26;;;;;;;7.95;5.50;;;12.50;50.60;;;;;;5057158;28;20028;-72
2021/04/16 14:33:52;;;;;;;7.15;5.07;;;12.30;47.70;;;;;;5057082;28;20019;-72
2021/04/16 14:36:18;;;;;;;8.38;4.80;;;12.00;51.20;;;;;;5057372;28;20024;-72
2021/04/16 14:38:43;;;;;;;6.90;4.07;;;11.80;48.10;;;;;;5057293;28;20128;-72
2021/04/16 14:41:10;;;;;;;6.55;4.95;;;11.50;51.70;;;;;;5057388;28;20469;-72
2021/04/16 14:43:36;;;;;;;5.90;4.57;;;11.30;49.50;;;;;;5056884;28;20432;-72
2021/04/16 14:46:02;;;;;;;7.53;4.65;;;11.00;50.00;;;;;;5056882;28;20037;-72
2021/04/16 14:48:30;;;;;;;5.50;4.32;;;11.10;52.10;;;;;;5057060;28;20028;-72
2021/04/16 14:51:01;;;;;;;7.68;4.35;;;11.00;51.60;;;;;;5056883;28;20021;-72
2021/04/16 14:53:37;;;;;;;8.18;4.80;;;11.10;53.10;;;;;;5057078;28;20029;-72
2021/04/16 14:56:06;;;;;;;7.15;4.95;;;11.20;52.80;;;;;;5056836;28;20486;-72
2021/04/16 14:58:50;;;;;;;7.10;4.72;;;11.20;50.40;;;;;;5057027;28;20067;-72
2021/04/16 15:01:17;;;;;;;6.72;4.65;;;11.30;51.30;;;;;;5057859;28;20033;-72
2021/04/16 15:03:43;;;;;;;6.03;4.35;;;11.20;51.30;;;;;;5056612;28;20490;-72
2021/04/16 15:06:16;;;;;;;8.45;5.03;;;11.10;51.90;;;;;;5056648;28;20047;-72
2021/04/16 15:08:47;;;;;;;8.75;4.68;;;11.10;52.20;;;;;;5056741;28;20108;-72
2021/04/16 15:11:15;;;;;;;8.85;4.97;;;11.10;52.20;;;;;;5056646;28;20029;-72
2021/04/16 15:13:41;;;;;;;6.40;4.60;;;11.00;51.70;;;;;;5056787;28;20021;-72
2021/04/16 15:16:19;;;;;;;5.57;4.68;;;11.00;52.00;;;;;;5056836;28;20321;-72
2021/04/16 15:18:46;;;;;;;7.90;4.03;;;11.00;54.40;;;;;;5056823;28;20124;-72
2021/04/16 15:21:20;;;;;;;7.10;4.28;;;11.10;53.00;;;;;;5056821;28;20294;-72
2021/04/16 15:23:48;;;;;;;7.68;5.15;;;11.30;53.90;;;;;;5056747;28;20035;-72